Time;durP1;ratioP1;P1;durP2;ratioP2;P2;SDS_P1;SDS_P2;PMS_P1;PMS_P2;Temp;Humidity;BMP_temperature;BMP_pressure;BME280_temperature;BME280_humidity;BME280_pressure;Samples;Min_cycle;Max_cycle;Signal;HPM_P1;HPM_P2
2022/08/25 00:00:20;;;;;;;4.05;2.30;;;;;;;19.08;70.07;92810.00;5074779;28;20032;-78
2022/08/25 00:02:46;;;;;;;7.13;2.15;;;;;;;19.11;69.54;92814.63;5074637;28;20052;-78
2022/08/25 00:05:12;;;;;;;4.25;2.22;;;;;;;19.12;69.69;92819.63;5075162;28;20036;-78
2022/08/25 00:07:38;;;;;;;4.78;2.28;;;;;;;19.14;69.78;92811.34;5071647;28;20032;-78
2022/08/25 00:10:05;;;;;;;7.32;2.60;;;;;;;19.13;69.67;92809.78;5056697;28;20039;-78
2022/08/25 00:12:31;;;;;;;4.70;2.28;;;;;;;19.15;70.02;92807.56;5073717;28;20059;-79
2022/08/25 00:14:57;;;;;;;5.25;2.20;;;;;;;19.14;69.83;92812.09;5074542;28;20024;-78
2022/08/25 00:17:23;;;;;;;6.32;2.45;;;;;;;19.15;70.50;92812.88;5071725;28;20282;-78
2022/08/25 00:19:49;;;;;;;8.88;2.70;;;;;;;19.13;70.65;92809.78;5074285;28;20483;-78
2022/08/25 00:22:14;;;;;;;4.43;2.20;;;;;;;19.11;69.98;92825.25;5073180;28;20086;-78
2022/08/25 00:24:40;;;;;;;4.22;2.28;;;;;;;19.04;70.03;92815.19;5073073;28;20560;-78
2022/08/25 00:27:06;;;;;;;6.90;2.38;;;;;;;19.05;70.47;92814.09;5054822;28;20474;-78
2022/08/25 00:29:32;;;;;;;8.38;2.50;;;;;;;19.06;70.29;92820.16;5072019;28;20028;-78
2022/08/25 00:31:59;;;;;;;7.15;2.70;;;;;;;19.03;69.91;92820.84;5074229;28;20094;-77
2022/08/25 00:34:29;;;;;;;8.35;2.65;;;;;;;19.05;70.62;92819.41;5072904;28;20140;-78
2022/08/25 00:36:54;;;;;;;6.68;2.50;;;;;;;19.00;70.61;92814.28;5073798;28;20036;-78
2022/08/25 00:39:22;;;;;;;7.35;2.50;;;;;;;18.96;70.76;92820.56;5072227;28;20044;-78
2022/08/25 00:41:50;;;;;;;9.13;2.40;;;;;;;18.92;70.99;92809.88;5073101;28;20482;-78
2022/08/25 00:44:17;;;;;;;5.70;2.40;;;;;;;18.92;70.52;92810.63;5072414;28;20064;-78
2022/08/25 00:46:48;;;;;;;5.35;2.50;;;;;;;18.92;70.19;92815.94;5073651;28;20075;-78
2022/08/25 00:49:18;;;;;;;5.93;2.58;;;;;;;18.92;70.17;92805.34;5065072;28;20070;-78
2022/08/25 00:51:56;;;;;;;5.68;2.53;;;;;;;18.93;70.50;92806.09;5052403;28;20041;-78
2022/08/25 00:54:37;;;;;;;5.88;2.72;;;;;;;18.90;70.26;92796.94;5052512;28;20044;-78
2022/08/25 00:57:06;;;;;;;5.05;2.42;;;;;;;18.89;70.11;92800.69;5060149;28;20033;-78
2022/08/25 00:59:31;;;;;;;9.10;2.63;;;;;;;18.89;70.28;92795.41;5067413;28;20068;-78
2022/08/25 01:01:58;;;;;;;3.85;2.40;;;;;;;18.88;70.53;92801.78;5053595;28;20044;-78
2022/08/25 01:04:24;;;;;;;5.88;2.53;;;;;;;18.86;70.51;92796.03;5053498;28;20135;-77
2022/08/25 01:06:50;;;;;;;5.20;2.53;;;;;;;18.85;70.80;92791.84;5052383;28;20033;-77
2022/08/25 01:09:18;;;;;;;4.95;2.47;;;;;;;18.81;71.07;92790.19;5053696;28;20518;-77
2022/08/25 01:11:45;;;;;;;8.32;2.42;;;;;;;18.79;70.65;92801.13;5052761;28;20044;-78
2022/08/25 01:14:15;;;;;;;6.80;2.42;;;;;;;18.78;70.80;92796.94;5055306;28;20048;-78
2022/08/25 01:16:45;;;;;;;4.53;2.15;;;;;;;18.75;70.74;92788.81;5073136;28;20616;-78
2022/08/25 01:19:14;;;;;;;5.45;2.50;;;;;;;18.72;70.78;92790.25;5073169;28;20040;-78
2022/08/25 01:21:42;;;;;;;4.35;2.08;;;;;;;18.71;71.26;92789.47;5071335;28;20037;-78
2022/08/25 01:24:14;;;;;;;4.05;2.08;;;;;;;18.70;70.84;92793.22;5073127;28;20489;-78
2022/08/25 01:26:40;;;;;;;5.90;2.47;;;;;;;18.64;71.43;92778.66;5070681;28;20350;-78
2022/08/25 01:29:20;;;;;;;4.40;2.33;;;;;;;18.64;71.51;92785.81;5072264;28;20029;-78
2022/08/25 01:31:52;;;;;;;7.40;2.60;;;;;;;18.60;71.75;92780.41;5071309;28;20118;-78
2022/08/25 01:34:18;;;;;;;4.47;2.40;;;;;;;18.61;72.25;92779.28;5071684;28;20041;-78
2022/08/25 01:36:44;;;;;;;5.78;2.60;;;;;;;18.58;72.52;92787.13;5072597;28;20045;-78
2022/08/25 01:39:12;;;;;;;6.75;2.28;;;;;;;18.58;72.60;92792.44;5072920;28;20052;-78
2022/08/25 01:41:49;;;;;;;4.30;2.30;;;;;;;18.54;72.16;92786.25;5071031;28;20520;-78
2022/08/25 01:44:16;;;;;;;4.32;2.30;;;;;;;18.57;72.55;92788.22;5071830;28;20037;-78
2022/08/25 01:46:42;;;;;;;5.90;2.20;;;;;;;18.55;72.58;92785.13;5072517;28;20501;-78
2022/08/25 01:49:09;;;;;;;5.82;2.42;;;;;;;18.58;73.08;92795.09;5071096;28;20198;-78
2022/08/25 01:51:43;;;;;;;10.45;2.70;;;;;;;18.60;74.03;92795.50;5071931;28;20045;-78
2022/08/25 01:54:09;;;;;;;3.33;2.25;;;;;;;18.60;73.61;92790.22;5054518;28;20036;-78
2022/08/25 01:56:34;;;;;;;10.32;2.60;;;;;;;18.60;73.41;92793.66;5052484;28;20458;-78
2022/08/25 01:59:00;;;;;;;4.88;2.45;;;;;;;18.59;73.60;92794.75;5051139;28;20461;-78
2022/08/25 02:01:26;;;;;;;6.05;2.30;;;;;;;18.60;73.71;92793.66;5053023;28;20041;-77
2022/08/25 02:03:54;;;;;;;3.20;2.00;;;;;;;18.62;73.66;92790.66;5053480;28;20024;-77
2022/08/25 02:06:27;;;;;;;6.35;2.42;;;;;;;18.62;73.81;92796.75;5069250;28;20055;-77
2022/08/25 02:08:57;;;;;;;6.35;2.40;;;;;;;18.62;73.54;92801.25;5072367;28;20025;-77
2022/08/25 02:11:23;;;;;;;3.92;2.40;;;;;;;18.59;73.33;92799.28;5070838;28;20040;-77
2022/08/25 02:13:53;;;;;;;4.20;2.20;;;;;;;18.59;73.37;92800.03;5070486;28;20027;-77
2022/08/25 02:16:32;;;;;;;5.80;2.40;;;;;;;18.59;73.39;92796.63;5070302;28;20032;-78
2022/08/25 02:18:58;;;;;;;6.53;2.40;;;;;;;18.59;73.29;92799.28;5071306;28;20438;-77
2022/08/25 02:21:25;;;;;;;5.07;2.40;;;;;;;18.53;73.81;92798.72;5072064;28;20037;-78
2022/08/25 02:23:51;;;;;;;4.00;2.30;;;;;;;18.54;73.69;92804.78;5070340;28;20036;-77
2022/08/25 02:26:18;;;;;;;4.68;2.38;;;;;;;18.50;73.37;92802.78;5071787;28;20039;-77
2022/08/25 02:28:48;;;;;;;5.57;2.60;;;;;;;18.48;73.52;92798.91;5071526;28;20034;-78
2022/08/25 02:31:15;;;;;;;4.18;2.70;;;;;;;18.47;73.87;92798.13;5071628;28;20386;-77
2022/08/25 02:33:41;;;;;;;4.60;2.78;;;;;;;18.50;73.54;92789.53;5069536;28;20021;-77
2022/08/25 02:36:07;;;;;;;16.17;4.38;;;;;;;18.40;73.66;92782.00;5056824;28;20029;-77
2022/08/25 02:38:34;;;;;;;4.68;2.55;;;;;;;18.43;73.46;92788.53;5050431;28;20530;-78
2022/08/25 02:41:00;;;;;;;8.43;2.65;;;;;;;18.38;74.13;92788.72;5051568;28;20506;-77
2022/08/25 02:43:27;;;;;;;6.88;2.72;;;;;;;18.34;74.26;92785.94;5070344;28;20379;-77
2022/08/25 02:45:55;;;;;;;7.53;2.63;;;;;;;18.31;74.44;92781.31;5063687;28;20032;-77
2022/08/25 02:48:22;;;;;;;5.53;2.80;;;;;;;18.30;73.99;92785.06;5051672;28;20043;-77
2022/08/25 02:50:51;;;;;;;5.40;2.90;;;;;;;18.25;74.58;92785.25;5062557;28;20051;-77
2022/08/25 02:53:17;;;;;;;4.28;2.63;;;;;;;18.23;74.42;92795.41;5071435;28;20043;-78
2022/08/25 02:55:43;;;;;;;6.45;2.85;;;;;;;18.23;74.87;92795.41;5068458;28;20040;-77
2022/08/25 02:58:09;;;;;;;8.85;3.50;;;;;;;18.22;74.92;92794.63;5050197;28;20044;-78
2022/08/25 03:00:35;;;;;;;4.60;2.90;;;;;;;18.22;74.97;92793.88;5050012;28;20036;-77
2022/08/25 03:03:00;;;;;;;5.32;3.20;;;;;;;18.25;74.84;92801.16;5051496;28;20036;-78
2022/08/25 03:05:26;;;;;;;5.82;3.10;;;;;;;18.21;74.99;92787.00;5060225;28;20082;-77
2022/08/25 03:07:52;;;;;;;5.22;2.90;;;;;;;18.18;74.69;92787.66;5069157;28;20028;-78
2022/08/25 03:10:19;;;;;;;8.38;3.13;;;;;;;18.17;74.85;92784.25;5069955;28;20041;-78
2022/08/25 03:12:45;;;;;;;12.20;3.15;;;;;;;18.17;74.79;92786.09;5071065;28;20086;-77
2022/08/25 03:15:15;;;;;;;5.72;3.10;;;;;;;18.16;74.96;92789.88;5071205;28;20426;-77
2022/08/25 03:17:42;;;;;;;7.40;3.22;;;;;;;18.08;74.93;92779.03;5069397;28;20043;-77
2022/08/25 03:20:08;;;;;;;6.43;2.83;;;;;;;18.10;75.50;92784.78;5068948;28;20085;-77
2022/08/25 03:22:34;;;;;;;5.32;2.78;;;;;;;18.10;75.78;92782.13;5070823;28;20025;-77
2022/08/25 03:27:45;;;;;;;6.63;2.85;;;;;;;18.02;76.07;92780.31;5044430;28;20395;-77
2022/08/25 03:30:12;;;;;;;5.57;2.80;;;;;;;18.03;76.21;92795.09;5049691;28;20029;-77
2022/08/25 03:32:38;;;;;;;8.32;3.20;;;;;;;18.00;76.49;92787.81;5052473;28;20041;-77
2022/08/25 03:35:05;;;;;;;5.75;2.88;;;;;;;17.98;76.47;92783.94;5069707;28;20129;-77
2022/08/25 03:37:30;;;;;;;4.60;2.70;;;;;;;17.98;76.59;92782.06;5070477;28;20087;-77
2022/08/25 03:39:56;;;;;;;6.90;3.38;;;;;;;17.97;77.10;92775.22;5064359;28;20114;-78
2022/08/25 03:42:21;;;;;;;5.70;3.05;;;;;;;17.97;76.97;92769.13;5070957;28;20045;-77
2022/08/25 03:44:48;;;;;;;8.25;3.22;;;;;;;18.00;77.37;92771.91;5070971;28;20020;-77
2022/08/25 03:47:13;;;;;;;5.75;3.17;;;;;;;17.97;77.15;92769.94;5069568;28;20071;-77
2022/08/25 03:49:39;;;;;;;5.03;3.30;;;;;;;17.92;77.10;92767.47;5065479;28;20702;-77
2022/08/25 03:52:05;;;;;;;9.00;3.20;;;;;;;17.91;77.24;92767.81;5069541;28;20649;-77
2022/08/25 03:54:30;;;;;;;5.35;3.55;;;;;;;17.88;77.59;92758.63;5069463;28;20032;-77
2022/08/25 03:56:56;;;;;;;7.10;3.42;;;;;;;17.88;77.25;92758.63;5069447;28;20044;-77
2022/08/25 03:59:21;;;;;;;5.40;3.40;;;;;;;17.85;77.51;92760.03;5069008;28;20043;-77
2022/08/25 04:01:48;;;;;;;8.55;3.25;;;;;;;17.81;78.13;92747.75;5055496;28;20032;-78
2022/08/25 04:04:15;;;;;;;6.35;3.75;;;;;;;17.73;78.08;92740.66;5068260;28;20614;-77
2022/08/25 04:06:42;;;;;;;9.75;3.35;;;;;;;17.79;78.32;92748.09;5070309;28;20131;-77
2022/08/25 04:09:09;;;;;;;7.53;3.30;;;;;;;17.77;78.56;92746.88;5070494;28;20032;-77
2022/08/25 04:11:35;;;;;;;7.40;3.85;;;;;;;17.73;78.87;92751.25;5055067;28;20041;-77
2022/08/25 04:14:01;;;;;;;5.22;3.50;;;;;;;17.71;79.06;92754.22;5049305;28;20067;-78
2022/08/25 04:16:30;;;;;;;5.65;3.88;;;;;;;17.69;79.21;92741.28;5050667;28;20029;-77
2022/08/25 04:18:57;;;;;;;8.88;3.70;;;;;;;17.67;79.27;92743.50;5052052;28;20463;-77
2022/08/25 04:21:23;;;;;;;6.85;4.13;;;;;;;17.64;79.29;92744.13;5069917;28;20482;-77
2022/08/25 04:23:50;;;;;;;6.70;4.15;;;;;;;17.63;78.66;92744.44;5069364;28;20433;-77
2022/08/25 04:26:20;;;;;;;5.82;4.13;;;;;;;17.61;78.68;92739.50;5052714;28;20135;-77
2022/08/25 04:28:46;;;;;;;6.43;4.25;;;;;;;17.60;78.60;92732.66;5069234;28;20041;-77
2022/08/25 04:31:13;;;;;;;7.57;4.03;;;;;;;17.60;78.76;92742.47;5068230;28;20032;-77
2022/08/25 04:33:40;;;;;;;5.80;3.92;;;;;;;17.60;78.57;92742.47;5061326;28;20032;-78
2022/08/25 04:36:08;;;;;;;8.65;4.32;;;;;;;17.59;78.71;92740.94;5064384;28;20040;-77
2022/08/25 04:38:34;;;;;;;9.10;4.50;;;;;;;17.60;78.49;92743.22;5063101;28;20064;-77
2022/08/25 04:41:02;;;;;;;8.50;4.65;;;;;;;17.61;78.61;92739.50;5069650;28;20393;-77
2022/08/25 04:43:32;;;;;;;7.63;4.30;;;;;;;17.64;78.99;92735.44;5068146;28;20185;-77
2022/08/25 04:45:58;;;;;;;7.35;4.13;;;;;;;17.64;78.89;92736.19;5070110;28;20097;-77
2022/08/25 04:48:24;;;;;;;9.40;4.10;;;;;;;17.63;78.92;92729.38;5071732;28;20108;-77
2022/08/25 04:50:50;;;;;;;5.45;3.85;;;;;;;17.61;79.07;92718.31;5077857;28;20036;-77
2022/08/25 04:53:16;;;;;;;9.00;4.45;;;;;;;17.65;79.50;92734.31;5064470;28;20063;-77
2022/08/25 04:55:46;;;;;;;7.50;4.05;;;;;;;17.65;79.30;92718.44;5064463;28;20040;-77
2022/08/25 04:58:13;;;;;;;6.55;4.20;;;;;;;17.67;79.20;92722.34;5072587;28;20124;-77
2022/08/25 05:00:40;;;;;;;6.75;4.07;;;;;;;17.71;78.94;92727.75;5072935;28;20040;-77
2022/08/25 05:03:07;;;;;;;6.10;3.80;;;;;;;17.73;78.99;92725.53;5068921;28;20035;-77
2022/08/25 05:05:35;;;;;;;7.25;4.10;;;;;;;17.78;78.83;92727.22;5065064;28;20041;-77
2022/08/25 05:08:01;;;;;;;6.05;3.80;;;;;;;17.78;78.42;92716.63;5068554;28;20378;-77
2022/08/25 05:10:27;;;;;;;8.45;3.90;;;;;;;17.85;78.47;92720.31;5073190;28;20028;-77
2022/08/25 05:12:53;;;;;;;8.27;4.05;;;;;;;17.84;77.66;92710.84;5070369;28;20139;-78
2022/08/25 05:18:02;;;;;;;7.68;4.40;;;;;;;17.99;77.52;92720.06;5072968;28;20226;-78
2022/08/25 05:20:29;;;;;;;10.80;4.30;;;;;;;18.04;77.64;92711.91;5068218;28;20107;-78
2022/08/25 05:22:56;;;;;;;7.57;4.07;;;;;;;18.12;77.50;92717.44;5082173;28;20039;-78
2022/08/25 05:25:21;;;;;;;8.63;4.43;;;;;;;18.19;77.02;92712.38;5062914;28;20028;-79
2022/08/25 05:27:47;;;;;;;8.75;4.10;;;;;;;18.27;76.78;92708.88;5061152;28;20530;-78
2022/08/25 05:30:13;;;;;;;9.50;4.20;;;;;;;18.35;76.84;92710.66;5061084;28;20079;-78
2022/08/25 05:32:38;;;;;;;14.30;4.10;;;;;;;18.44;76.54;92721.94;5061059;28;20116;-78
2022/08/25 05:35:06;;;;;;;10.50;4.00;;;;;;;18.51;76.34;92716.88;5076978;28;20128;-78
2022/08/25 05:37:32;;;;;;;8.05;4.40;;;;;;;18.63;76.11;92720.63;5063025;28;20495;-78
2022/08/25 05:39:58;;;;;;;6.65;4.28;;;;;;;18.71;75.66;92709.13;5070450;28;20040;-79
2022/08/25 05:42:24;;;;;;;7.80;4.45;;;;;;;18.83;75.31;92711.06;5070054;28;20066;-77
2022/08/25 05:44:49;;;;;;;8.57;5.07;;;;;;;18.95;75.15;92707.63;5068929;28;20041;-79
2022/08/25 05:47:15;;;;;;;7.35;5.13;;;;;;;19.06;75.12;92711.38;5052127;28;20032;-78
2022/08/25 05:49:41;;;;;;;8.48;4.68;;;;;;;19.16;74.47;92708.28;5077918;28;20033;-78
2022/08/25 05:52:07;;;;;;;9.05;4.53;;;;;;;19.26;74.29;92707.81;5078400;28;20028;-77
2022/08/25 05:54:32;;;;;;;8.07;4.63;;;;;;;19.40;74.14;92704.03;5093366;28;20036;-77
2022/08/25 05:56:59;;;;;;;10.25;5.05;;;;;;;19.52;73.76;92704.00;5074358;28;20557;-77
2022/08/25 05:59:25;;;;;;;8.07;5.03;;;;;;;19.65;73.22;92702.84;5078321;28;20466;-77
2022/08/25 06:04:35;;;;;;;10.35;4.65;;;;;;;19.94;72.64;92701.03;5071947;28;20543;-77
2022/08/25 06:07:01;;;;;;;8.23;4.20;;;;;;;20.12;72.36;92699.59;5071054;28;20066;-77
2022/08/25 06:09:26;;;;;;;5.88;3.60;;;;;;;20.28;72.11;92706.84;5072267;28;20079;-77
2022/08/25 06:11:52;;;;;;;9.68;3.80;;;;;;;20.42;71.74;92701.88;5072657;28;20043;-77
2022/08/25 06:14:19;;;;;;;7.63;3.85;;;;;;;20.54;71.22;92701.81;5072011;28;20543;-77
2022/08/25 06:16:44;;;;;;;7.22;3.80;;;;;;;20.71;70.77;92703.38;5071900;28;20438;-77
2022/08/25 06:19:10;;;;;;;7.15;3.60;;;;;;;20.90;70.59;92700.03;5071085;28;20041;-77
2022/08/25 06:21:39;;;;;;;8.05;4.32;;;;;;;21.20;69.28;92707.53;5070946;28;20035;-77
2022/08/25 06:24:06;;;;;;;8.52;4.18;;;;;;;22.13;66.36;92703.34;5072310;28;20036;-77
2022/08/25 06:26:33;;;;;;;7.03;3.50;;;;;;;23.27;63.29;92699.94;5055057;28;20047;-77
2022/08/25 06:28:58;;;;;;;8.40;4.43;;;;;;;24.18;59.39;92696.50;5073439;28;20079;-78
2022/08/25 06:31:24;;;;;;;10.80;4.78;;;;;;;25.16;56.20;92694.31;5065994;28;20482;-78
2022/08/25 06:33:49;;;;;;;11.77;4.35;;;;;;;25.99;54.48;92692.91;5057915;28;20055;-78
2022/08/25 06:36:16;;;;;;;10.25;4.07;;;;;;;26.74;52.91;92690.41;5074355;28;20048;-78
2022/08/25 06:38:42;;;;;;;10.40;5.25;;;;;;;27.52;47.88;92683.47;5075505;28;20524;-78
2022/08/25 06:41:09;;;;;;;11.27;3.38;;;;;;;27.77;48.88;92685.31;5061170;28;20056;-78
2022/08/25 06:43:35;;;;;;;6.35;3.65;;;;;;;26.89;50.70;92682.38;5058037;28;20060;-78
2022/08/25 06:46:09;;;;;;;7.35;3.88;;;;;;;26.84;49.89;92682.72;5074628;28;20041;-78
2022/08/25 06:48:34;;;;;;;5.72;3.70;;;;;;;26.81;50.47;92683.50;5074483;28;20031;-78
2022/08/25 06:51:05;;;;;;;7.13;3.75;;;;;;;27.36;49.20;92685.81;5057083;28;20037;-78
2022/08/25 06:53:30;;;;;;;7.78;4.00;;;;;;;27.35;48.31;92674.28;5075170;28;20113;-78
2022/08/25 06:55:57;;;;;;;9.60;4.32;;;;;;;27.55;48.26;92684.63;5070273;28;20025;-78
2022/08/25 06:58:23;;;;;;;9.07;4.40;;;;;;;28.07;47.79;92676.78;5063377;28;20037;-78
2022/08/25 07:00:49;;;;;;;8.70;4.10;;;;;;;28.12;48.00;92675.59;5054996;28;20560;-78
2022/08/25 07:03:15;;;;;;;12.02;4.50;;;;;;;27.93;46.84;92677.59;5059343;28;20098;-78
2022/08/25 07:05:40;;;;;;;9.75;4.07;;;;;;;27.87;47.49;92668.41;5071129;28;20046;-78
2022/08/25 07:08:06;;;;;;;9.10;4.22;;;;;;;26.75;50.81;92672.38;5070796;28;20116;-77
2022/08/25 07:10:31;;;;;;;8.10;3.78;;;;;;;26.37;51.60;92678.06;5069897;28;20060;-77
2022/08/25 07:12:57;;;;;;;9.13;4.03;;;;;;;26.24;53.47;92676.88;5051132;28;20040;-77
2022/08/25 07:15:22;;;;;;;11.20;4.30;;;;;;;25.75;54.39;92675.53;5069206;28;20036;-77
2022/08/25 07:17:49;;;;;;;10.35;4.57;;;;;;;25.38;56.11;92679.19;5071289;28;20025;-77
2022/08/25 07:20:16;;;;;;;6.63;3.88;;;;;;;24.76;58.26;92682.53;5071181;28;20040;-77
2022/08/25 07:22:42;;;;;;;10.88;4.15;;;;;;;24.59;59.47;92677.81;5070775;28;20061;-77
2022/08/25 07:25:10;;;;;;;7.57;4.20;;;;;;;24.24;61.70;92674.41;5067913;28;20028;-77
2022/08/25 07:27:36;;;;;;;9.15;4.50;;;;;;;24.10;62.68;92675.03;5070317;28;20043;-77
2022/08/25 07:30:04;;;;;;;8.73;4.35;;;;;;;24.07;63.52;92670.41;5070983;28;20337;-76
2022/08/25 07:32:30;;;;;;;13.48;4.30;;;;;;;24.01;63.34;92671.09;5067884;28;20058;-77
2022/08/25 07:37:44;;;;;;;6.65;4.00;;;;;;;24.25;62.19;92665.25;5064241;28;20409;-77
2022/08/25 07:40:31;;;;;;;10.45;4.78;;;;;;;24.18;62.21;92665.16;5069714;28;20024;-77
2022/08/25 07:42:59;;;;;;;11.82;3.80;;;;;;;24.46;62.31;92666.59;5070597;28;20035;-76
2022/08/25 07:45:30;;;;;;;10.07;4.50;;;;;;;24.35;61.53;92665.72;5071964;28;20036;-78
2022/08/25 07:48:05;;;;;;;7.68;4.15;;;;;;;24.16;61.92;92664.78;5052390;28;20407;-77
2022/08/25 07:50:32;;;;;;;8.65;4.55;;;;;;;24.25;61.71;92665.25;5054692;28;20063;-77
2022/08/25 07:52:58;;;;;;;8.45;4.00;;;;;;;24.15;61.53;92671.25;5069256;28;20462;-77
2022/08/25 07:55:25;;;;;;;8.30;4.18;;;;;;;24.04;62.11;92662.34;5070863;28;20089;-77
2022/08/25 07:57:52;;;;;;;10.20;4.50;;;;;;;24.10;61.47;92671.59;5067211;28;20128;-78
2022/08/25 08:00:18;;;;;;;7.38;4.30;;;;;;;23.92;61.30;92675.97;5070641;28;20028;-78
2022/08/25 08:02:43;;;;;;;10.57;4.68;;;;;;;23.83;60.98;92673.59;5086167;28;20040;-77
2022/08/25 08:05:11;;;;;;;7.90;4.20;;;;;;;23.93;61.52;92669.47;5070561;28;20044;-77
2022/08/25 08:07:37;;;;;;;10.52;4.50;;;;;;;24.18;60.08;92675.09;5061628;28;20086;-77
2022/08/25 08:10:05;;;;;;;7.75;4.38;;;;;;;24.22;59.34;92675.91;5049057;28;20053;-77
2022/08/25 08:12:30;;;;;;;11.20;4.18;;;;;;;24.09;60.12;92675.38;5050543;28;20060;-77
2022/08/25 08:14:57;;;;;;;6.68;4.50;;;;;;;24.20;59.40;92678.16;5052470;28;20037;-77
2022/08/25 08:17:23;;;;;;;10.50;4.40;;;;;;;24.40;59.53;92684.88;5055128;28;20402;-78
2022/08/25 08:19:49;;;;;;;8.45;5.20;;;;;;;24.33;58.42;92681.38;5073190;28;20033;-77
2022/08/25 08:22:15;;;;;;;8.40;4.60;;;;;;;24.31;60.18;92679.06;5074164;28;20494;-77
2022/08/25 08:24:43;;;;;;;10.48;4.82;;;;;;;24.50;58.96;92680.81;5074126;28;20076;-78
2022/08/25 08:27:10;;;;;;;10.48;4.85;;;;;;;24.59;58.53;92683.94;5074345;28;20024;-77
2022/08/25 08:29:38;;;;;;;12.32;6.13;;;;;;;24.82;53.79;92683.75;5058089;28;20121;-77
2022/08/25 08:32:06;;;;;;;10.63;6.20;;;;;;;25.17;54.20;92665.63;5054235;28;20051;-78
2022/08/25 08:34:32;;;;;;;9.88;5.90;;;;;;;25.67;52.26;92680.09;5054433;28;20071;-78
2022/08/25 08:36:58;;;;;;;11.13;5.85;;;;;;;25.93;51.44;92681.75;5053813;28;20041;-78
2022/08/25 08:39:25;;;;;;;14.60;6.60;;;;;;;26.30;50.67;92678.06;5053668;28;20033;-78
2022/08/25 08:42:18;;;;;;;15.00;7.50;;;;;;;26.44;48.22;92676.56;5054030;28;20041;-78
2022/08/25 08:44:44;;;;;;;9.25;4.40;;;;;;;26.16;52.64;92683.38;5053761;28;20032;-77
2022/08/25 08:47:19;;;;;;;8.57;4.90;;;;;;;25.82;54.28;92678.25;5052736;28;20045;-77
2022/08/25 08:50:01;;;;;;;11.43;5.18;;;;;;;25.19;56.06;92676.75;5054172;28;20032;-78
2022/08/25 08:52:43;;;;;;;6.50;4.63;;;;;;;24.87;57.10;92678.03;5053552;28;20040;-77
2022/08/25 08:55:33;;;;;;;13.02;4.38;;;;;;;24.81;57.60;92684.09;5053565;28;20040;-77
2022/08/25 08:58:03;;;;;;;11.75;5.18;;;;;;;24.89;57.37;92681.13;5042321;28;20053;-77
2022/08/25 09:00:31;;;;;;;8.20;5.28;;;;;;;24.96;57.04;92680.41;5064056;28;20028;-78
2022/08/25 09:03:00;;;;;;;11.40;5.03;;;;;;;25.17;56.41;92679.78;5073256;28;20028;-78
2022/08/25 09:05:29;;;;;;;8.13;5.15;;;;;;;25.05;55.70;92691.56;5073608;28;20089;-77
2022/08/25 09:08:09;;;;;;;8.18;6.03;;;;;;;25.26;53.92;92682.16;5073394;28;20533;-77
2022/08/25 09:10:57;;;;;;;12.00;5.97;;;;;;;25.51;53.66;92672.38;5064906;28;20037;-78
2022/08/25 09:13:57;;;;;;;8.32;5.18;;;;;;;25.96;52.84;92677.56;5052068;28;20048;-77
2022/08/25 09:19:24;;;;;;;7.82;4.32;;;;;;;25.63;53.87;92670.50;5053252;28;20041;-78
2022/08/25 09:22:18;;;;;;;9.93;5.00;;;;;;;25.37;55.27;92680.31;5054246;28;20052;-78
2022/08/25 09:25:03;;;;;;;10.10;4.53;;;;;;;25.46;54.07;92680.75;5053148;28;20039;-77
2022/08/25 09:27:51;;;;;;;9.00;4.40;;;;;;;25.50;55.22;92675.41;5052967;28;20037;-78
2022/08/25 09:30:19;;;;;;;6.90;4.35;;;;;;;25.86;53.13;92675.59;5053229;28;20048;-78
2022/08/25 09:32:48;;;;;;;11.13;5.30;;;;;;;25.86;51.78;92670.97;5072126;28;20478;-78
2022/08/25 09:35:20;;;;;;;9.10;5.80;;;;;;;25.64;52.04;92664.00;5071910;28;20097;-77
2022/08/25 09:37:58;;;;;;;9.43;4.95;;;;;;;26.07;51.10;92673.00;5073102;28;20045;-78
2022/08/25 09:40:27;;;;;;;9.50;5.22;;;;;;;25.65;52.90;92660.19;5073122;28;20127;-77
2022/08/25 09:42:56;;;;;;;8.15;5.50;;;;;;;25.74;51.42;92669.41;5061922;28;20024;-78
2022/08/25 09:45:42;;;;;;;11.25;5.60;;;;;;;26.00;51.09;92674.91;5052836;28;20379;-78
2022/08/25 09:48:36;;;;;;;10.98;5.00;;;;;;;25.99;50.82;92665.31;5052043;28;20064;-78
2022/08/25 09:51:29;;;;;;;11.63;5.20;;;;;;;26.16;50.74;92651.97;5053117;28;20170;-78
2022/08/25 09:54:01;;;;;;;8.35;5.10;;;;;;;26.36;51.34;92660.41;5047982;28;20309;-78
2022/08/25 09:56:30;;;;;;;8.63;4.50;;;;;;;26.26;47.80;92655.81;5062996;28;20521;-79
2022/08/25 09:59:21;;;;;;;10.02;5.10;;;;;;;26.40;49.37;92651.63;5052881;28;20132;-79
2022/08/25 10:01:53;;;;;;;7.70;3.90;;;;;;;26.99;49.19;92649.34;5053101;28;20079;-78
2022/08/25 10:04:26;;;;;;;;;;;;;;;27.43;47.21;92650.84;5054215;28;20047;-79
2022/08/25 10:06:51;;;;;;;7.72;3.80;;;;;;;27.85;46.50;92648.44;5058113;28;20444;-79
2022/08/25 10:09:30;;;;;;;10.18;4.20;;;;;;;27.60;44.50;92655.41;5072701;28;20112;-78
2022/08/25 10:11:59;;;;;;;5.60;3.45;;;;;;;27.68;41.13;92648.09;5071949;28;20047;-79
2022/08/25 10:14:29;;;;;;;7.85;3.80;;;;;;;27.05;42.84;92644.38;5072668;28;20075;-78
2022/08/25 10:17:32;;;;;;;8.52;3.95;;;;;;;26.78;42.15;92644.78;5070571;28;20489;-78
2022/08/25 10:20:09;;;;;;;;;;;;;;;26.71;43.60;92642.84;5019868;28;20040;-78
2022/08/25 10:22:36;;;;;;;7.85;3.55;;;;;;;27.00;42.45;92634.78;5072145;28;19913;-78
2022/08/25 10:25:03;;;;;;;8.88;3.60;;;;;;;27.41;42.36;92634.34;5071266;28;20032;-78
2022/08/25 10:27:55;;;;;;;7.18;3.75;;;;;;;27.62;42.72;92636.19;5071456;28;20439;-78
2022/08/25 10:30:26;;;;;;;6.22;3.83;;;;;;;27.92;41.71;92629.56;5053323;28;20053;-78
2022/08/25 10:33:39;;;;;;;5.40;3.72;;;;;;;28.00;38.82;92625.69;5053517;28;20426;-78
2022/08/25 10:36:19;;;;;;;6.32;3.42;;;;;;;28.19;40.26;92627.13;5007929;28;20086;-79
2022/08/25 10:38:51;;;;;;;5.55;3.38;;;;;;;28.32;38.55;92612.03;5059079;28;20032;-78
2022/08/25 10:41:32;;;;;;;6.22;3.72;;;;;;;28.31;40.72;92615.91;5073371;28;20064;-79
2022/08/25 10:47:36;;;;;;;7.93;3.75;;;;;;;28.42;39.56;92605.06;5070941;28;20500;-79
2022/08/25 10:50:22;;;;;;;9.10;3.85;;;;;;;28.82;40.98;92592.84;5064635;28;20045;-78
2022/08/25 10:53:06;;;;;;;5.07;2.97;;;;;;;28.90;37.08;92590.09;5071346;28;20619;-79
2022/08/25 10:55:51;;;;;;;5.95;3.40;;;;;;;28.92;38.85;92577.75;5072596;28;20020;-78
2022/08/25 10:58:35;;;;;;;7.10;3.30;;;;;;;28.20;37.25;92577.53;5071922;28;20123;-78
2022/08/25 11:01:14;;;;;;;6.15;3.80;;;;;;;28.25;37.19;92577.09;5070092;28;20036;-78
2022/08/25 11:03:55;;;;;;;7.65;3.15;;;;;;;28.34;35.80;92576.66;5054054;28;20040;-78
2022/08/25 11:06:38;;;;;;;9.55;3.17;;;;;;;28.55;35.93;92578.44;5072308;28;20128;-78
2022/08/25 11:09:08;;;;;;;7.80;3.20;;;;;;;28.66;36.45;92568.34;5070746;28;20056;-78
2022/08/25 11:11:41;;;;;;;5.45;2.60;;;;;;;28.19;37.02;92568.69;5069332;28;20382;-78
2022/08/25 11:14:38;;;;;;;7.53;3.47;;;;;;;27.52;39.01;92565.19;5071233;28;20402;-78
2022/08/25 11:17:23;;;;;;;8.20;3.70;;;;;;;27.42;39.05;92566.00;5062942;28;20113;-78
2022/08/25 11:19:52;;;;;;;11.00;3.80;;;;;;;27.26;40.81;92562.97;5071048;28;20494;-78
2022/08/25 11:22:50;;;;;;;11.10;4.07;;;;;;;27.37;41.08;92564.47;5068013;28;20028;-78
2022/08/25 11:25:24;;;;;;;7.45;3.47;;;;;;;27.41;40.08;92561.78;5051129;28;20133;-78
2022/08/25 11:28:09;;;;;;;7.65;4.07;;;;;;;27.50;38.31;92558.69;5050837;28;20032;-78
2022/08/25 11:30:37;;;;;;;5.28;3.47;;;;;;;27.47;39.37;92556.75;5049542;28;20033;-78
2022/08/25 11:33:04;;;;;;;7.68;3.30;;;;;;;27.19;40.14;92550.31;5069692;28;20421;-78
2022/08/25 11:36:04;;;;;;;8.85;4.10;;;;;;;27.03;39.27;92537.31;5069714;28;20093;-78
2022/08/25 11:38:39;;;;;;;7.43;3.70;;;;;;;27.23;39.30;92544.97;5048303;28;20049;-78
2022/08/25 11:41:26;;;;;;;5.57;3.50;;;;;;;27.44;38.68;92546.78;5070771;28;20490;-78
2022/08/25 11:44:37;;;;;;;8.48;3.75;;;;;;;27.42;39.40;92547.16;5070727;28;20418;-78
2022/08/25 11:47:32;;;;;;;10.63;4.30;;;;;;;27.47;39.38;92536.03;5036687;28;20052;-78
2022/08/25 11:50:05;;;;;;;7.03;3.88;;;;;;;27.30;40.56;92539.56;5072748;28;20032;-78
2022/08/25 11:52:31;;;;;;;7.15;3.97;;;;;;;27.50;39.41;92545.22;5072903;28;20036;-78
2022/08/25 11:55:11;;;;;;;9.20;3.63;;;;;;;27.71;38.98;92539.75;5055769;28;20050;-78
2022/08/25 11:57:37;;;;;;;5.65;3.92;;;;;;;27.46;39.06;92539.88;5053590;28;20210;-78
2022/08/25 12:00:34;;;;;;;6.03;3.88;;;;;;;27.40;39.77;92541.41;5054835;28;20128;-78
2022/08/25 12:03:32;;;;;;;6.15;3.72;;;;;;;27.19;39.68;92534.94;5057274;28;20398;-78